Calabogie, Canada
Current Conditions -  °F | °C
As of 3:00 PM on Friday 31 Oct 2014 (Local Time) from CYOW Reporting Station
Broken Clouds Broken Clouds  
Wind Chill: 40°   Ceiling: 8000
Heat Index: 45°   Visibility: 15mi
Dew Point: 28°   Wind: 9mph
Humidity: 53%   Direction: 70°ENE
Pressure: 30.04"   Gusts: NA
Location:  45.31°N, 76.72°W
Report Text: CYOW 311900Z 07008KT 15SM FEW030 SCT063 BKN080 BKN140 07/M02 A3004 RMK SC1SC3AC2AC2 SC TR SLP176
Loading
Personal Weather Stations






























Interactive Weather Map New forecast layout! Learn more

10-Day Weather Forecast

Advertisements
Track Severe Weather on mobile